Shonan Maru — JD2362 — position and weather

sailwx.info

Track history (hours):
 
Tides and Currents Weather Stations Pressure Air Temp Water Temp Dewpoint Dewpoint Depression Visibility Wind Speed Wind Dir Waves Ship Positions

Shonan Maru

Last reported at 2018-Jun-24 03:18 UTC. Time now 2018-Jun-24 03:41 UTC.
Position N 35°28' E 139°56'.

Length 38 m; draft 3 m.

Type: Tug. MMSI: 431000124.

Date/timePositionNaut miles runAvg speedWind from/ knotsBaromVisibWave heightAir tempDewpointWater temp
2018-Jun-24 03:18N 35°28' E 139°56'0 0.0
2018-Jun-24 02:59N 35°28' E 139°56'0 0.0
2018-Jun-24 02:30N 35°28' E 139°56'0 0.0
2018-Jun-24 02:00N 35°28' E 139°56'3 3.6
2018-Jun-24 01:19N 35°29' E 139°53'2 7.2
2018-Jun-24 01:00N 35°28' E 139°51'611.4
2018-Jun-24 00:30N 35°24' E 139°46'611.2
2018-Jun-24 00:00N 35°18' E 139°44'611.2
2018-Jun-23 23:29N 35°13' E 139°47'1 1.7
2018-Jun-23 22:39N 35°11' E 139°46'211.4
2018-Jun-23 22:30N 35°13' E 139°44'1 2.3
2018-Jun-23 21:53N 35°13' E 139°43'0 0.0
2018-Jun-23 21:28N 35°13' E 139°43'0 0.0
2018-Jun-23 20:59N 35°13' E 139°43'0 0.0
2018-Jun-23 20:25N 35°13' E 139°43'0 0.0
2018-Jun-23 19:59N 35°13' E 139°43'0 0.0
2018-Jun-23 19:30N 35°13' E 139°43'0 0.0
2018-Jun-23 19:00N 35°13' E 139°43'0 0.0
2018-Jun-23 18:29N 35°13' E 139°43'0 0.0
2018-Jun-23 18:00N 35°13' E 139°43'0 0.0
2018-Jun-23 17:29N 35°13' E 139°43'0 0.0
2018-Jun-23 17:00N 35°13' E 139°43'0 0.0
2018-Jun-23 16:29N 35°13' E 139°43'0 0.0
2018-Jun-23 16:00N 35°13' E 139°43'0 0.0
2018-Jun-23 15:28N 35°13' E 139°43'0 0.0
2018-Jun-23 14:59N 35°13' E 139°43'0 0.0
2018-Jun-23 14:29N 35°13' E 139°43'0 0.0
2018-Jun-23 14:00N 35°13' E 139°43'0 0.0
2018-Jun-23 13:30N 35°13' E 139°43'0 0.0
2018-Jun-23 13:00N 35°13' E 139°43'0 0.0
2018-Jun-23 12:30N 35°13' E 139°43'0 0.0
2018-Jun-23 11:56N 35°13' E 139°43'0 0.0
2018-Jun-23 11:29N 35°13' E 139°43'0 0.0
2018-Jun-23 11:00N 35°13' E 139°43'0 0.0
2018-Jun-23 10:26N 35°13' E 139°43'0 0.0
2018-Jun-23 09:59N 35°13' E 139°43'0 0.0
2018-Jun-23 09:30N 35°13' E 139°43'0 0.0
2018-Jun-23 08:54N 35°13' E 139°43'0 0.0
2018-Jun-23 08:30N 35°13' E 139°43'0 0.0
2018-Jun-23 07:58N 35°13' E 139°43'0 0.0
2018-Jun-23 07:19N 35°13' E 139°43'0 0.0
2018-Jun-23 06:57N 35°13' E 139°43'0 0.0
2018-Jun-23 06:30N 35°13' E 139°43'0 0.0
2018-Jun-23 06:00N 35°13' E 139°43'0 0.0
2018-Jun-23 05:30N 35°13' E 139°43'0 0.0
2018-Jun-23 04:44N 35°13' E 139°43'0 0.0
2018-Jun-23 03:52N 35°13' E 139°43'0 0.0
2018-Jun-23 01:46N 35°13' E 139°43'2 5.3
2018-Jun-23 01:27N 35°14' E 139°45'510.1
2018-Jun-23 01:00N 35°18' E 139°43'5 9.4
2018-Jun-23 00:30N 35°23' E 139°45'3 6.1
2018-Jun-23 00:00N 35°20' E 139°44'611.6
2018-Jun-22 23:30N 35°14' E 139°47'2 1.2
2018-Jun-22 21:51N 35°16' E 139°45'411.5
2018-Jun-22 21:30N 35°19' E 139°43'510.5
2018-Jun-22 21:00N 35°24' E 139°45'2 4.1
2018-Jun-22 20:30N 35°22' E 139°45'610.8
2018-Jun-22 19:59N 35°16' E 139°46'6 5.6
2018-Jun-22 18:59N 35°11' E 139°47'4 7.5
2018-Jun-22 18:27N 35°13' E 139°43'0 0.4
2018-Jun-22 17:57N 35°13' E 139°43'0 0.0
2018-Jun-22 17:29N 35°13' E 139°43'0 0.0
2018-Jun-22 17:00N 35°13' E 139°43'0 0.0
2018-Jun-22 16:29N 35°13' E 139°43'0 0.0
2018-Jun-22 16:00N 35°13' E 139°43'0 0.0
2018-Jun-22 15:30N 35°13' E 139°43'0 0.0
2018-Jun-22 15:00N 35°13' E 139°43'0 0.0
2018-Jun-22 14:30N 35°13' E 139°43'0 0.0
2018-Jun-22 14:00N 35°13' E 139°43'0 0.0
2018-Jun-22 13:30N 35°13' E 139°43'0 0.0
2018-Jun-22 13:00N 35°13' E 139°43'3 5.2
2018-Jun-22 12:25N 35°12' E 139°46'511.0
2018-Jun-22 11:57N 35°17' E 139°45'613.2
2018-Jun-22 11:30N 35°23' E 139°42'2 4.9
2018-Jun-22 11:01N 35°24' E 139°45'0 0.0
2018-Jun-22 10:30N 35°24' E 139°45'0 0.0
2018-Jun-22 10:00N 35°24' E 139°45'0 0.0
2018-Jun-22 09:30N 35°24' E 139°45'0 0.0
2018-Jun-22 09:00N 35°24' E 139°45'0 0.0
2018-Jun-22 08:30N 35°24' E 139°45'0 0.0
2018-Jun-22 08:00N 35°24' E 139°45'2 4.7
2018-Jun-22 07:30N 35°22' E 139°45'611.3
2018-Jun-22 07:00N 35°16' E 139°46'5 5.3
2018-Jun-22 06:05N 35°11' E 139°46'212.1
2018-Jun-22 05:57N 35°13' E 139°45'2 4.0
2018-Jun-22 05:27N 35°13' E 139°43'0 0.0
2018-Jun-22 05:00N 35°13' E 139°43'0 0.0
2018-Jun-22 04:26N 35°13' E 139°43'0 0.0
2018-Jun-22 03:59N 35°13' E 139°43'0 0.0
2018-Jun-22 03:30N 35°13' E 139°43'0 0.0
2018-Jun-22 02:58N 35°13' E 139°43'0 0.0
2018-Jun-22 02:23N 35°13' E 139°43'0 0.0
2018-Jun-22 02:00N 35°13' E 139°43'0 0.0
2018-Jun-22 01:30N 35°13' E 139°43'0 0.0
2018-Jun-22 00:59N 35°13' E 139°43'0 0.0
2018-Jun-22 00:28N 35°13' E 139°43'0 0.0
2018-Jun-21 23:58N 35°13' E 139°43'0 0.0
2018-Jun-21 23:27N 35°13' E 139°43'0 0.0
2018-Jun-21 22:59N 35°13' E 139°43'0 0.0
2018-Jun-21 22:30N 35°13' E 139°43'0 0.0
2018-Jun-21 21:54N 35°13' E 139°43'0 0.0
2018-Jun-21 21:26N 35°13' E 139°43'0 0.0
2018-Jun-21 21:00N 35°13' E 139°43'0 0.0
2018-Jun-21 20:30N 35°13' E 139°43'0 0.0
2018-Jun-21 20:00N 35°13' E 139°43'0 0.0
2018-Jun-21 19:30N 35°13' E 139°43'0 0.0
2018-Jun-21 18:59N 35°13' E 139°43'0 0.0
2018-Jun-21 18:27N 35°13' E 139°43'0 0.0
2018-Jun-21 17:58N 35°13' E 139°43'0 0.0
2018-Jun-21 17:30N 35°13' E 139°43'0 0.0
2018-Jun-21 17:00N 35°13' E 139°43'0 0.0
2018-Jun-21 16:28N 35°13' E 139°43'0 0.0
2018-Jun-21 16:00N 35°13' E 139°43'0 0.0
2018-Jun-21 15:29N 35°13' E 139°43'0 0.0
2018-Jun-21 15:00N 35°13' E 139°43'0 0.0
2018-Jun-21 14:30N 35°13' E 139°43'0 0.0
2018-Jun-21 13:58N 35°13' E 139°43'0 0.0
2018-Jun-21 13:29N 35°13' E 139°43'0 0.0
2018-Jun-21 12:59N 35°13' E 139°43'0 0.0
2018-Jun-21 12:30N 35°13' E 139°43'0 0.0
2018-Jun-21 11:58N 35°13' E 139°43'0 0.0
2018-Jun-21 11:30N 35°13' E 139°43'0 0.0
2018-Jun-21 11:00N 35°13' E 139°43'0 0.0
2018-Jun-21 10:30N 35°13' E 139°43'0 0.0
2018-Jun-21 10:00N 35°13' E 139°43'0 0.0
2018-Jun-21 09:30N 35°13' E 139°43'0 0.0
2018-Jun-21 09:00N 35°13' E 139°43'0 0.0
2018-Jun-21 08:27N 35°13' E 139°43'0 0.0
2018-Jun-21 08:00N 35°13' E 139°43'0 0.0
2018-Jun-21 07:26N 35°13' E 139°43'0 0.0
2018-Jun-21 07:00N 35°13' E 139°43'0 0.0
2018-Jun-21 06:28N 35°13' E 139°43'0 0.0
2018-Jun-21 06:00N 35°13' E 139°43'0 0.0
2018-Jun-21 05:29N 35°13' E 139°43'0 0.0
2018-Jun-21 04:55N 35°13' E 139°43'0 0.0
2018-Jun-21 04:26N 35°13' E 139°43'0 0.0
2018-Jun-21 03:58N 35°13' E 139°43'0 0.0
2018-Jun-21 03:30N 35°13' E 139°43'0 0.0
2018-Jun-21 02:56N 35°13' E 139°43'2 3.2
2018-Jun-21 02:24N 35°14' E 139°45'511.8
2018-Jun-21 02:00N 35°19' E 139°43'3 7.0
2018-Jun-21 01:31N 35°22' E 139°42'4 8.6
2018-Jun-21 01:01N 35°18' E 139°45'611.1
2018-Jun-21 00:31N 35°13' E 139°47'2 1.3
2018-Jun-20 23:13N 35°14' E 139°45'311.4
2018-Jun-20 22:59N 35°17' E 139°45'510.2
2018-Jun-20 22:30N 35°21' E 139°42'5 9.9
2018-Jun-20 22:00N 35°25' E 139°47'612.5
2018-Jun-20 21:31N 35°19' E 139°44'612.0
2018-Jun-20 21:00N 35°13' E 139°47'2 2.7
2018-Jun-20 20:18N 35°12' E 139°45'2 6.5
2018-Jun-20 19:57N 35°13' E 139°43'0 0.1
2018-Jun-20 19:30N 35°13' E 139°43'0 0.0
2018-Jun-20 18:59N 35°13' E 139°43'0 0.0
2018-Jun-20 18:28N 35°13' E 139°43'0 0.0
2018-Jun-20 18:00N 35°13' E 139°43'0 0.0
2018-Jun-20 10:33N 35°13' E 139°43'0 3.3
2018-Jun-20 10:26N 35°13' E 139°43'4 4.7
2018-Jun-20 09:40N 35°17' E 139°45'211.4
2018-Jun-20 09:30N 35°18' E 139°44'611.0
2018-Jun-20 09:00N 35°23' E 139°42'4 8.4
2018-Jun-20 08:30N 35°25' E 139°47'4 7.4
2018-Jun-20 07:59N 35°23' E 139°51'1 1.0
2018-Jun-20 07:21N 35°23' E 139°50'411.2
2018-Jun-20 07:00N 35°21' E 139°46'5 9.3
2018-Jun-20 06:30N 35°16' E 139°44'3 0.4
2018-Jun-19 20:55N 35°13' E 139°43'0 0.0
2018-Jun-19 20:30N 35°13' E 139°43'0 0.0
2018-Jun-19 19:50N 35°13' E 139°43'0 0.0
2018-Jun-19 16:18N 35°13' E 139°43'0 0.0
2018-Jun-19 15:54N 35°13' E 139°43'0 0.0
2018-Jun-19 15:28N 35°13' E 139°43'0 0.0
2018-Jun-19 14:14N 35°13' E 139°43'0 0.0
2018-Jun-19 13:44N 35°13' E 139°43'0 0.0
2018-Jun-19 13:22N 35°13' E 139°43'0 0.0
2018-Jun-19 12:55N 35°13' E 139°43'0 0.0
2018-Jun-19 12:05N 35°13' E 139°43'0 0.0
2018-Jun-19 11:03N 35°13' E 139°43'0 0.0
2018-Jun-19 10:38N 35°13' E 139°43'0 0.0
2018-Jun-19 10:30N 35°13' E 139°43'0 0.0
2018-Jun-19 02:31N 35°13' E 139°43'0 0.0
2018-Jun-19 02:28N 35°13' E 139°43'4 7.7
2018-Jun-19 02:00N 35°17' E 139°44'611.4
2018-Jun-19 01:30N 35°22' E 139°42'3 6.8
2018-Jun-19 01:00N 35°19' E 139°44'611.1
2018-Jun-19 00:29N 35°14' E 139°47'4 5.8
2018-Jun-18 23:51N 35°10' E 139°47'411.2
2018-Jun-18 23:29N 35°13' E 139°43'0 0.7
2018-Jun-18 22:57N 35°13' E 139°43'0 0.0
2018-Jun-18 22:18N 35°13' E 139°43'3 8.9
2018-Jun-18 22:00N 35°12' E 139°46'510.8
2018-Jun-18 21:30N 35°17' E 139°44'612.5
2018-Jun-18 21:00N 35°24' E 139°42'1 2.6
2018-Jun-18 20:30N 35°22' E 139°43'611.2
2018-Jun-18 20:00N 35°17' E 139°44'4 7.3
2018-Jun-18 19:30N 35°13' E 139°43'0 0.0
2018-Jun-18 18:59N 35°13' E 139°43'0 0.0
2018-Jun-18 18:29N 35°13' E 139°43'0 0.0
2018-Jun-18 17:53N 35°13' E 139°43'0 0.0
2018-Jun-18 17:22N 35°13' E 139°43'0 0.0
2018-Jun-18 16:46N 35°13' E 139°43'0 0.0
2018-Jun-18 16:16N 35°13' E 139°43'0 0.0
2018-Jun-18 16:00N 35°13' E 139°43'0 0.0
2018-Jun-18 15:26N 35°13' E 139°43'0 0.0
2018-Jun-18 14:59N 35°13' E 139°43'0 0.0
2018-Jun-18 14:26N 35°13' E 139°43'0 0.0
2018-Jun-18 13:59N 35°13' E 139°43'0 0.0
2018-Jun-18 13:19N 35°13' E 139°43'0 0.0
2018-Jun-18 10:31N 35°13' E 139°43'0 0.1
2018-Jun-18 10:29N 35°13' E 139°43'4 4.5
2018-Jun-18 09:41N 35°16' E 139°46'212.5
2018-Jun-18 09:30N 35°18' E 139°44'611.6
2018-Jun-18 09:00N 35°24' E 139°43'612.5
2018-Jun-18 08:30N 35°28' E 139°48'6 2.3
2018-Jun-18 05:54N 35°31' E 139°55'512.5
2018-Jun-18 05:30N 35°28' E 139°50'510.9
2018-Jun-18 05:00N 35°24' E 139°45'0 0.0
2018-Jun-18 04:30N 35°24' E 139°45'0 0.0
2018-Jun-18 04:00N 35°24' E 139°45'0 0.0
2018-Jun-18 03:30N 35°24' E 139°45'0 0.0
2018-Jun-18 03:00N 35°24' E 139°45'0 0.0
2018-Jun-18 02:30N 35°24' E 139°45'0 0.0
2018-Jun-18 02:00N 35°24' E 139°45'0 0.0
2018-Jun-18 01:30N 35°24' E 139°45'0 0.0
2018-Jun-18 01:00N 35°24' E 139°45'0 0.0
2018-Jun-18 00:30N 35°24' E 139°45'2 3.8
2018-Jun-18 00:00N 35°26' E 139°45'3 6.3
2018-Jun-17 23:30N 35°23' E 139°46'510.4
2018-Jun-17 23:00N 35°18' E 139°45'711.1
2018-Jun-17 22:20N 35°11' E 139°47'1 2.0
2018-Jun-17 21:58N 35°11' E 139°46'3 7.3
2018-Jun-17 21:30N 35°13' E 139°43'0 0.0
2018-Jun-17 04:54N 35°13' E 139°43'3 6.5
2018-Jun-17 04:30N 35°12' E 139°46'5 9.7
2018-Jun-17 04:00N 35°17' E 139°45'612.3
2018-Jun-17 03:30N 35°23' E 139°42'510.1
2018-Jun-17 03:00N 35°25' E 139°48'4 7.9
2018-Jun-17 02:30N 35°21' E 139°49'0 0.3
2018-Jun-17 02:00N 35°21' E 139°49'1 2.0
2018-Jun-17 01:29N 35°22' E 139°48'510.5
2018-Jun-17 00:58N 35°27' E 139°52'5 8.8
2018-Jun-17 00:24N 35°31' E 139°56'3 7.1
2018-Jun-17 00:00N 35°29' E 139°53'612.1
2018-Jun-16 23:30N 35°25' E 139°47'612.2
2018-Jun-16 23:00N 35°20' E 139°44'611.4
2018-Jun-16 22:29N 35°14' E 139°47'3 3.6
2018-Jun-16 21:34N 35°11' E 139°46'212.1
2018-Jun-16 21:24N 35°13' E 139°45'2 3.0
2018-Jun-16 20:53N 35°13' E 139°43'0 0.0
2018-Jun-16 20:18N 35°13' E 139°43'0 0.0
2018-Jun-16 19:48N 35°13' E 139°43'0 0.0
2018-Jun-16 19:21N 35°13' E 139°43'0 0.0
2018-Jun-16 18:59N 35°13' E 139°43'0 0.0
2018-Jun-16 18:29N 35°13' E 139°43'0 0.0
2018-Jun-16 17:52N 35°13' E 139°43'0 0.0
2018-Jun-16 17:27N 35°13' E 139°43'0 0.0
2018-Jun-16 16:52N 35°13' E 139°43'0 0.0
2018-Jun-16 16:29N 35°13' E 139°43'0 0.0
2018-Jun-16 15:43N 35°13' E 139°43'0 0.0
2018-Jun-16 14:48N 35°13' E 139°43'0 0.0
2018-Jun-16 14:28N 35°13' E 139°43'0 0.0
2018-Jun-16 13:36N 35°13' E 139°43'0 0.0
2018-Jun-16 13:22N 35°13' E 139°43'0 0.0
2018-Jun-16 12:59N 35°13' E 139°43'0 0.0
2018-Jun-16 12:24N 35°13' E 139°43'3 4.8
2018-Jun-16 11:52N 35°12' E 139°46'411.3
2018-Jun-16 11:28N 35°17' E 139°45'511.8
2018-Jun-16 11:01N 35°22' E 139°42'3 5.5
2018-Jun-16 10:31N 35°24' E 139°44'0 1.0
2018-Jun-16 10:01N 35°24' E 139°44'0 0.0
2018-Jun-16 09:30N 35°24' E 139°44'0 0.0
2018-Jun-16 09:00N 35°24' E 139°44'1 1.8
2018-Jun-16 08:30N 35°25' E 139°45'3 7.0
2018-Jun-16 08:00N 35°21' E 139°45'611.5
2018-Jun-16 07:30N 35°16' E 139°47'4 6.1
2018-Jun-16 06:46N 35°11' E 139°47'410.3
2018-Jun-16 06:22N 35°13' E 139°43'3 4.0
2018-Jun-16 05:39N 35°16' E 139°45'210.8
2018-Jun-16 05:29N 35°17' E 139°44'5 9.6
2018-Jun-16 05:00N 35°22' E 139°43'3 5.5
2018-Jun-16 04:30N 35°24' E 139°45'0 0.1
2018-Jun-16 04:01N 35°24' E 139°45'1 2.8
2018-Jun-16 03:30N 35°24' E 139°47'1 2.3
2018-Jun-16 03:00N 35°24' E 139°48'3 6.3
2018-Jun-16 02:30N 35°22' E 139°45'4 7.9
2018-Jun-16 02:01N 35°18' E 139°44'610.9
2018-Jun-16 01:25N 35°12' E 139°47'2 4.5
2018-Jun-16 00:51N 35°10' E 139°47'5 9.0
2018-Jun-16 00:21N 35°13' E 139°43'0 0.2
2018-Jun-15 22:53N 35°13' E 139°43'0 0.0
2018-Jun-15 18:20N 35°13' E 139°43'0 0.0
2018-Jun-15 17:48N 35°13' E 139°43'0 0.0
2018-Jun-15 17:27N 35°13' E 139°43'0 0.0
2018-Jun-15 16:58N 35°13' E 139°43'0 0.0
2018-Jun-15 16:28N 35°13' E 139°43'0 0.0
2018-Jun-15 16:00N 35°13' E 139°43'0 0.0
2018-Jun-15 15:27N 35°13' E 139°43'0 0.0
2018-Jun-15 14:59N 35°13' E 139°43'0 0.0
2018-Jun-15 14:29N 35°13' E 139°43'0 0.0
2018-Jun-15 13:53N 35°13' E 139°43'0 0.0
2018-Jun-15 13:29N 35°13' E 139°43'0 0.0
2018-Jun-15 12:58N 35°13' E 139°43'0 0.0
2018-Jun-15 12:22N 35°13' E 139°43'0 0.0
2018-Jun-15 11:55N 35°13' E 139°43'0 0.0
2018-Jun-15 06:34N 35°13' E 139°43'0 0.2
2018-Jun-15 06:16N 35°13' E 139°43'3 9.9
2018-Jun-15 05:59N 35°12' E 139°46'4 8.3
2018-Jun-15 05:28N 35°16' E 139°45'5 9.7
2018-Jun-15 05:00N 35°20' E 139°42'611.7
2018-Jun-15 04:30N 35°26' E 139°43'2 3.5
2018-Jun-15 04:01N 35°27' E 139°43'0 0.5
2018-Jun-15 03:30N 35°27' E 139°43'1 1.6
2018-Jun-15 03:00N 35°27' E 139°42'0 0.0
2018-Jun-15 02:31N 35°27' E 139°42'0 0.0
2018-Jun-15 02:00N 35°27' E 139°42'0 0.0
2018-Jun-15 01:30N 35°27' E 139°42'0 0.0
2018-Jun-15 00:58N 35°27' E 139°42'2 5.1
2018-Jun-15 00:31N 35°25' E 139°42'510.8
2018-Jun-15 00:00N 35°19' E 139°42'510.2
2018-Jun-14 23:30N 35°15' E 139°45'1 1.5
2018-Jun-14 22:56N 35°16' E 139°46'612.9
2018-Jun-14 22:30N 35°20' E 139°42'2 5.0
2018-Jun-14 22:00N 35°23' E 139°43'611.5
2018-Jun-14 21:30N 35°17' E 139°44'4 0.8
2018-Jun-14 17:08N 35°13' E 139°43'0 0.0
2018-Jun-14 16:59N 35°13' E 139°43'0 0.0
2018-Jun-14 15:50N 35°13' E 139°43'0 0.0
2018-Jun-14 11:07N 35°13' E 139°43'0 0.0
2018-Jun-14 10:58N 35°13' E 139°43'0 0.0
2018-Jun-14 08:34N 35°13' E 139°43'0 0.0
2018-Jun-14 07:45N 35°13' E 139°43'3 6.6
2018-Jun-14 07:18N 35°13' E 139°46'2 6.6
2018-Jun-14 06:58N 35°15' E 139°46'511.1
2018-Jun-14 06:30N 35°19' E 139°43'612.1
2018-Jun-14 06:00N 35°25' E 139°44'713.9
2018-Jun-14 05:30N 35°29' E 139°51'  
Track history (hours):
 
Tides and Currents Weather Stations Pressure Air Temp Water Temp Dewpoint Dewpoint Depression Visibility Wind Speed Wind Dir Waves Ship Positions

Shonan Maru

Last reported at 2018-Jun-24 03:18 UTC. Time now 2018-Jun-24 03:41 UTC.
Position N 35°28' E 139°56'.

Length 38 m; draft 3 m.

Type: Tug. MMSI: 431000124.

Date/timePositionNaut miles runAvg speedWind from/ knotsBaromVisibWave heightAir tempDewpointWater temp
2018-Jun-24 03:18N 35°28' E 139°56'0 0.0
2018-Jun-24 02:59N 35°28' E 139°56'0 0.0
2018-Jun-24 02:30N 35°28' E 139°56'0 0.0
2018-Jun-24 02:00N 35°28' E 139°56'3 3.6
2018-Jun-24 01:19N 35°29' E 139°53'2 7.2
2018-Jun-24 01:00N 35°28' E 139°51'611.4
2018-Jun-24 00:30N 35°24' E 139°46'611.2
2018-Jun-24 00:00N 35°18' E 139°44'611.2
2018-Jun-23 23:29N 35°13' E 139°47'1 1.7
2018-Jun-23 22:39N 35°11' E 139°46'211.4
2018-Jun-23 22:30N 35°13' E 139°44'1 2.3
2018-Jun-23 21:53N 35°13' E 139°43'0 0.0
2018-Jun-23 21:28N 35°13' E 139°43'0 0.0
2018-Jun-23 20:59N 35°13' E 139°43'0 0.0
2018-Jun-23 20:25N 35°13' E 139°43'0 0.0
2018-Jun-23 19:59N 35°13' E 139°43'0 0.0
2018-Jun-23 19:30N 35°13' E 139°43'0 0.0
2018-Jun-23 19:00N 35°13' E 139°43'0 0.0
2018-Jun-23 18:29N 35°13' E 139°43'0 0.0
2018-Jun-23 18:00N 35°13' E 139°43'0 0.0
2018-Jun-23 17:29N 35°13' E 139°43'0 0.0
2018-Jun-23 17:00N 35°13' E 139°43'0 0.0
2018-Jun-23 16:29N 35°13' E 139°43'0 0.0
2018-Jun-23 16:00N 35°13' E 139°43'0 0.0
2018-Jun-23 15:28N 35°13' E 139°43'0 0.0
2018-Jun-23 14:59N 35°13' E 139°43'0 0.0
2018-Jun-23 14:29N 35°13' E 139°43'0 0.0
2018-Jun-23 14:00N 35°13' E 139°43'0 0.0
2018-Jun-23 13:30N 35°13' E 139°43'0 0.0
2018-Jun-23 13:00N 35°13' E 139°43'0 0.0
2018-Jun-23 12:30N 35°13' E 139°43'0 0.0
2018-Jun-23 11:56N 35°13' E 139°43'0 0.0
2018-Jun-23 11:29N 35°13' E 139°43'0 0.0
2018-Jun-23 11:00N 35°13' E 139°43'0 0.0
2018-Jun-23 10:26N 35°13' E 139°43'0 0.0
2018-Jun-23 09:59N 35°13' E 139°43'0 0.0
2018-Jun-23 09:30N 35°13' E 139°43'0 0.0
2018-Jun-23 08:54N 35°13' E 139°43'0 0.0
2018-Jun-23 08:30N 35°13' E 139°43'0 0.0
2018-Jun-23 07:58N 35°13' E 139°43'0 0.0
2018-Jun-23 07:19N 35°13' E 139°43'0 0.0
2018-Jun-23 06:57N 35°13' E 139°43'0 0.0
2018-Jun-23 06:30N 35°13' E 139°43'0 0.0
2018-Jun-23 06:00N 35°13' E 139°43'0 0.0
2018-Jun-23 05:30N 35°13' E 139°43'0 0.0
2018-Jun-23 04:44N 35°13' E 139°43'0 0.0
2018-Jun-23 03:52N 35°13' E 139°43'0 0.0
2018-Jun-23 01:46N 35°13' E 139°43'2 5.3
2018-Jun-23 01:27N 35°14' E 139°45'510.1
2018-Jun-23 01:00N 35°18' E 139°43'5 9.4
2018-Jun-23 00:30N 35°23' E 139°45'3 6.1
2018-Jun-23 00:00N 35°20' E 139°44'611.6
2018-Jun-22 23:30N 35°14' E 139°47'2 1.2
2018-Jun-22 21:51N 35°16' E 139°45'411.5
2018-Jun-22 21:30N 35°19' E 139°43'510.5
2018-Jun-22 21:00N 35°24' E 139°45'2 4.1
2018-Jun-22 20:30N 35°22' E 139°45'610.8
2018-Jun-22 19:59N 35°16' E 139°46'6 5.6
2018-Jun-22 18:59N 35°11' E 139°47'4 7.5
2018-Jun-22 18:27N 35°13' E 139°43'0 0.4
2018-Jun-22 17:57N 35°13' E 139°43'0 0.0
2018-Jun-22 17:29N 35°13' E 139°43'0 0.0
2018-Jun-22 17:00N 35°13' E 139°43'0 0.0
2018-Jun-22 16:29N 35°13' E 139°43'0 0.0
2018-Jun-22 16:00N 35°13' E 139°43'0 0.0
2018-Jun-22 15:30N 35°13' E 139°43'0 0.0
2018-Jun-22 15:00N 35°13' E 139°43'0 0.0
2018-Jun-22 14:30N 35°13' E 139°43'0 0.0
2018-Jun-22 14:00N 35°13' E 139°43'0 0.0
2018-Jun-22 13:30N 35°13' E 139°43'0 0.0
2018-Jun-22 13:00N 35°13' E 139°43'3 5.2
2018-Jun-22 12:25N 35°12' E 139°46'511.0
2018-Jun-22 11:57N 35°17' E 139°45'613.2
2018-Jun-22 11:30N 35°23' E 139°42'2 4.9
2018-Jun-22 11:01N 35°24' E 139°45'0 0.0
2018-Jun-22 10:30N 35°24' E 139°45'0 0.0
2018-Jun-22 10:00N 35°24' E 139°45'0 0.0
2018-Jun-22 09:30N 35°24' E 139°45'0 0.0
2018-Jun-22 09:00N 35°24' E 139°45'0 0.0
2018-Jun-22 08:30N 35°24' E 139°45'0 0.0
2018-Jun-22 08:00N 35°24' E 139°45'2 4.7
2018-Jun-22 07:30N 35°22' E 139°45'611.3
2018-Jun-22 07:00N 35°16' E 139°46'5 5.3
2018-Jun-22 06:05N 35°11' E 139°46'212.1
2018-Jun-22 05:57N 35°13' E 139°45'2 4.0
2018-Jun-22 05:27N 35°13' E 139°43'0 0.0
2018-Jun-22 05:00N 35°13' E 139°43'0 0.0
2018-Jun-22 04:26N 35°13' E 139°43'0 0.0
2018-Jun-22 03:59N 35°13' E 139°43'0 0.0
2018-Jun-22 03:30N 35°13' E 139°43'0 0.0
2018-Jun-22 02:58N 35°13' E 139°43'0 0.0
2018-Jun-22 02:23N 35°13' E 139°43'0 0.0
2018-Jun-22 02:00N 35°13' E 139°43'0 0.0
2018-Jun-22 01:30N 35°13' E 139°43'0 0.0
2018-Jun-22 00:59N 35°13' E 139°43'0 0.0
2018-Jun-22 00:28N 35°13' E 139°43'0 0.0
2018-Jun-21 23:58N 35°13' E 139°43'0 0.0
2018-Jun-21 23:27N 35°13' E 139°43'0 0.0
2018-Jun-21 22:59N 35°13' E 139°43'0 0.0
2018-Jun-21 22:30N 35°13' E 139°43'0 0.0
2018-Jun-21 21:54N 35°13' E 139°43'0 0.0
2018-Jun-21 21:26N 35°13' E 139°43'0 0.0
2018-Jun-21 21:00N 35°13' E 139°43'0 0.0
2018-Jun-21 20:30N 35°13' E 139°43'0 0.0
2018-Jun-21 20:00N 35°13' E 139°43'0 0.0
2018-Jun-21 19:30N 35°13' E 139°43'0 0.0
2018-Jun-21 18:59N 35°13' E 139°43'0 0.0
2018-Jun-21 18:27N 35°13' E 139°43'0 0.0
2018-Jun-21 17:58N 35°13' E 139°43'0 0.0
2018-Jun-21 17:30N 35°13' E 139°43'0 0.0
2018-Jun-21 17:00N 35°13' E 139°43'0 0.0
2018-Jun-21 16:28N 35°13' E 139°43'0 0.0
2018-Jun-21 16:00N 35°13' E 139°43'0 0.0
2018-Jun-21 15:29N 35°13' E 139°43'0 0.0
2018-Jun-21 15:00N 35°13' E 139°43'0 0.0
2018-Jun-21 14:30N 35°13' E 139°43'0 0.0
2018-Jun-21 13:58N 35°13' E 139°43'0 0.0
2018-Jun-21 13:29N 35°13' E 139°43'0 0.0
2018-Jun-21 12:59N 35°13' E 139°43'0 0.0
2018-Jun-21 12:30N 35°13' E 139°43'0 0.0
2018-Jun-21 11:58N 35°13' E 139°43'0 0.0
2018-Jun-21 11:30N 35°13' E 139°43'0 0.0
2018-Jun-21 11:00N 35°13' E 139°43'0 0.0
2018-Jun-21 10:30N 35°13' E 139°43'0 0.0
2018-Jun-21 10:00N 35°13' E 139°43'0 0.0
2018-Jun-21 09:30N 35°13' E 139°43'0 0.0
2018-Jun-21 09:00N 35°13' E 139°43'0 0.0
2018-Jun-21 08:27N 35°13' E 139°43'0 0.0
2018-Jun-21 08:00N 35°13' E 139°43'0 0.0
2018-Jun-21 07:26N 35°13' E 139°43'0 0.0
2018-Jun-21 07:00N 35°13' E 139°43'0 0.0
2018-Jun-21 06:28N 35°13' E 139°43'0 0.0
2018-Jun-21 06:00N 35°13' E 139°43'0 0.0
2018-Jun-21 05:29N 35°13' E 139°43'0 0.0
2018-Jun-21 04:55N 35°13' E 139°43'0 0.0
2018-Jun-21 04:26N 35°13' E 139°43'0 0.0
2018-Jun-21 03:58N 35°13' E 139°43'0 0.0
2018-Jun-21 03:30N 35°13' E 139°43'0 0.0
2018-Jun-21 02:56N 35°13' E 139°43'2 3.2
2018-Jun-21 02:24N 35°14' E 139°45'511.8
2018-Jun-21 02:00N 35°19' E 139°43'3 7.0
2018-Jun-21 01:31N 35°22' E 139°42'4 8.6
2018-Jun-21 01:01N 35°18' E 139°45'611.1
2018-Jun-21 00:31N 35°13' E 139°47'2 1.3
2018-Jun-20 23:13N 35°14' E 139°45'311.4
2018-Jun-20 22:59N 35°17' E 139°45'510.2
2018-Jun-20 22:30N 35°21' E 139°42'5 9.9
2018-Jun-20 22:00N 35°25' E 139°47'612.5
2018-Jun-20 21:31N 35°19' E 139°44'612.0
2018-Jun-20 21:00N 35°13' E 139°47'2 2.7
2018-Jun-20 20:18N 35°12' E 139°45'2 6.5
2018-Jun-20 19:57N 35°13' E 139°43'0 0.1
2018-Jun-20 19:30N 35°13' E 139°43'0 0.0
2018-Jun-20 18:59N 35°13' E 139°43'0 0.0
2018-Jun-20 18:28N 35°13' E 139°43'0 0.0
2018-Jun-20 18:00N 35°13' E 139°43'0 0.0
2018-Jun-20 10:33N 35°13' E 139°43'0 3.3
2018-Jun-20 10:26N 35°13' E 139°43'4 4.7
2018-Jun-20 09:40N 35°17' E 139°45'211.4
2018-Jun-20 09:30N 35°18' E 139°44'611.0
2018-Jun-20 09:00N 35°23' E 139°42'4 8.4
2018-Jun-20 08:30N 35°25' E 139°47'4 7.4
2018-Jun-20 07:59N 35°23' E 139°51'1 1.0
2018-Jun-20 07:21N 35°23' E 139°50'411.2
2018-Jun-20 07:00N 35°21' E 139°46'5 9.3
2018-Jun-20 06:30N 35°16' E 139°44'3 0.4
2018-Jun-19 20:55N 35°13' E 139°43'0 0.0
2018-Jun-19 20:30N 35°13' E 139°43'0 0.0
2018-Jun-19 19:50N 35°13' E 139°43'0 0.0
2018-Jun-19 16:18N 35°13' E 139°43'0 0.0
2018-Jun-19 15:54N 35°13' E 139°43'0 0.0
2018-Jun-19 15:28N 35°13' E 139°43'0 0.0
2018-Jun-19 14:14N 35°13' E 139°43'0 0.0
2018-Jun-19 13:44N 35°13' E 139°43'0 0.0
2018-Jun-19 13:22N 35°13' E 139°43'0 0.0
2018-Jun-19 12:55N 35°13' E 139°43'0 0.0
2018-Jun-19 12:05N 35°13' E 139°43'0 0.0
2018-Jun-19 11:03N 35°13' E 139°43'0 0.0
2018-Jun-19 10:38N 35°13' E 139°43'0 0.0
2018-Jun-19 10:30N 35°13' E 139°43'0 0.0
2018-Jun-19 02:31N 35°13' E 139°43'0 0.0
2018-Jun-19 02:28N 35°13' E 139°43'4 7.7
2018-Jun-19 02:00N 35°17' E 139°44'611.4
2018-Jun-19 01:30N 35°22' E 139°42'3 6.8
2018-Jun-19 01:00N 35°19' E 139°44'611.1
2018-Jun-19 00:29N 35°14' E 139°47'4 5.8
2018-Jun-18 23:51N 35°10' E 139°47'411.2
2018-Jun-18 23:29N 35°13' E 139°43'0 0.7
2018-Jun-18 22:57N 35°13' E 139°43'0 0.0
2018-Jun-18 22:18N 35°13' E 139°43'3 8.9
2018-Jun-18 22:00N 35°12' E 139°46'510.8
2018-Jun-18 21:30N 35°17' E 139°44'612.5
2018-Jun-18 21:00N 35°24' E 139°42'1 2.6
2018-Jun-18 20:30N 35°22' E 139°43'611.2
2018-Jun-18 20:00N 35°17' E 139°44'4 7.3
2018-Jun-18 19:30N 35°13' E 139°43'0 0.0
2018-Jun-18 18:59N 35°13' E 139°43'0 0.0
2018-Jun-18 18:29N 35°13' E 139°43'0 0.0
2018-Jun-18 17:53N 35°13' E 139°43'0 0.0
2018-Jun-18 17:22N 35°13' E 139°43'0 0.0
2018-Jun-18 16:46N 35°13' E 139°43'0 0.0
2018-Jun-18 16:16N 35°13' E 139°43'0 0.0
2018-Jun-18 16:00N 35°13' E 139°43'0 0.0
2018-Jun-18 15:26N 35°13' E 139°43'0 0.0
2018-Jun-18 14:59N 35°13' E 139°43'0 0.0
2018-Jun-18 14:26N 35°13' E 139°43'0 0.0
2018-Jun-18 13:59N 35°13' E 139°43'0 0.0
2018-Jun-18 13:19N 35°13' E 139°43'0 0.0
2018-Jun-18 10:31N 35°13' E 139°43'0 0.1
2018-Jun-18 10:29N 35°13' E 139°43'4 4.5
2018-Jun-18 09:41N 35°16' E 139°46'212.5
2018-Jun-18 09:30N 35°18' E 139°44'611.6
2018-Jun-18 09:00N 35°24' E 139°43'612.5
2018-Jun-18 08:30N 35°28' E 139°48'6 2.3
2018-Jun-18 05:54N 35°31' E 139°55'512.5
2018-Jun-18 05:30N 35°28' E 139°50'510.9
2018-Jun-18 05:00N 35°24' E 139°45'0 0.0
2018-Jun-18 04:30N 35°24' E 139°45'0 0.0
2018-Jun-18 04:00N 35°24' E 139°45'0 0.0
2018-Jun-18 03:30N 35°24' E 139°45'0 0.0
2018-Jun-18 03:00N 35°24' E 139°45'0 0.0
2018-Jun-18 02:30N 35°24' E 139°45'0 0.0
2018-Jun-18 02:00N 35°24' E 139°45'0 0.0
2018-Jun-18 01:30N 35°24' E 139°45'0 0.0
2018-Jun-18 01:00N 35°24' E 139°45'0 0.0
2018-Jun-18 00:30N 35°24' E 139°45'2 3.8
2018-Jun-18 00:00N 35°26' E 139°45'3 6.3
2018-Jun-17 23:30N 35°23' E 139°46'510.4
2018-Jun-17 23:00N 35°18' E 139°45'711.1
2018-Jun-17 22:20N 35°11' E 139°47'1 2.0
2018-Jun-17 21:58N 35°11' E 139°46'3 7.3
2018-Jun-17 21:30N 35°13' E 139°43'0 0.0
2018-Jun-17 04:54N 35°13' E 139°43'3 6.5
2018-Jun-17 04:30N 35°12' E 139°46'5 9.7
2018-Jun-17 04:00N 35°17' E 139°45'612.3
2018-Jun-17 03:30N 35°23' E 139°42'510.1
2018-Jun-17 03:00N 35°25' E 139°48'4 7.9
2018-Jun-17 02:30N 35°21' E 139°49'0 0.3
2018-Jun-17 02:00N 35°21' E 139°49'1 2.0
2018-Jun-17 01:29N 35°22' E 139°48'510.5
2018-Jun-17 00:58N 35°27' E 139°52'5 8.8
2018-Jun-17 00:24N 35°31' E 139°56'3 7.1
2018-Jun-17 00:00N 35°29' E 139°53'612.1
2018-Jun-16 23:30N 35°25' E 139°47'612.2
2018-Jun-16 23:00N 35°20' E 139°44'611.4
2018-Jun-16 22:29N 35°14' E 139°47'3 3.6
2018-Jun-16 21:34N 35°11' E 139°46'212.1
2018-Jun-16 21:24N 35°13' E 139°45'2 3.0
2018-Jun-16 20:53N 35°13' E 139°43'0 0.0
2018-Jun-16 20:18N 35°13' E 139°43'0 0.0
2018-Jun-16 19:48N 35°13' E 139°43'0 0.0
2018-Jun-16 19:21N 35°13' E 139°43'0 0.0
2018-Jun-16 18:59N 35°13' E 139°43'0 0.0
2018-Jun-16 18:29N 35°13' E 139°43'0 0.0
2018-Jun-16 17:52N 35°13' E 139°43'0 0.0
2018-Jun-16 17:27N 35°13' E 139°43'0 0.0
2018-Jun-16 16:52N 35°13' E 139°43'0 0.0
2018-Jun-16 16:29N 35°13' E 139°43'0 0.0
2018-Jun-16 15:43N 35°13' E 139°43'0 0.0
2018-Jun-16 14:48N 35°13' E 139°43'0 0.0
2018-Jun-16 14:28N 35°13' E 139°43'0 0.0
2018-Jun-16 13:36N 35°13' E 139°43'0 0.0
2018-Jun-16 13:22N 35°13' E 139°43'0 0.0
2018-Jun-16 12:59N 35°13' E 139°43'0 0.0
2018-Jun-16 12:24N 35°13' E 139°43'3 4.8
2018-Jun-16 11:52N 35°12' E 139°46'411.3
2018-Jun-16 11:28N 35°17' E 139°45'511.8
2018-Jun-16 11:01N 35°22' E 139°42'3 5.5
2018-Jun-16 10:31N 35°24' E 139°44'0 1.0
2018-Jun-16 10:01N 35°24' E 139°44'0 0.0
2018-Jun-16 09:30N 35°24' E 139°44'0 0.0
2018-Jun-16 09:00N 35°24' E 139°44'1 1.8
2018-Jun-16 08:30N 35°25' E 139°45'3 7.0
2018-Jun-16 08:00N 35°21' E 139°45'611.5
2018-Jun-16 07:30N 35°16' E 139°47'4 6.1
2018-Jun-16 06:46N 35°11' E 139°47'410.3
2018-Jun-16 06:22N 35°13' E 139°43'3 4.0
2018-Jun-16 05:39N 35°16' E 139°45'210.8
2018-Jun-16 05:29N 35°17' E 139°44'5 9.6
2018-Jun-16 05:00N 35°22' E 139°43'3 5.5
2018-Jun-16 04:30N 35°24' E 139°45'0 0.1
2018-Jun-16 04:01N 35°24' E 139°45'1 2.8
2018-Jun-16 03:30N 35°24' E 139°47'1 2.3
2018-Jun-16 03:00N 35°24' E 139°48'3 6.3
2018-Jun-16 02:30N 35°22' E 139°45'4 7.9
2018-Jun-16 02:01N 35°18' E 139°44'610.9
2018-Jun-16 01:25N 35°12' E 139°47'2 4.5
2018-Jun-16 00:51N 35°10' E 139°47'5 9.0
2018-Jun-16 00:21N 35°13' E 139°43'0 0.2
2018-Jun-15 22:53N 35°13' E 139°43'0 0.0
2018-Jun-15 18:20N 35°13' E 139°43'0 0.0
2018-Jun-15 17:48N 35°13' E 139°43'0 0.0
2018-Jun-15 17:27N 35°13' E 139°43'0 0.0
2018-Jun-15 16:58N 35°13' E 139°43'0 0.0
2018-Jun-15 16:28N 35°13' E 139°43'0 0.0
2018-Jun-15 16:00N 35°13' E 139°43'0 0.0
2018-Jun-15 15:27N 35°13' E 139°43'0 0.0
2018-Jun-15 14:59N 35°13' E 139°43'0 0.0
2018-Jun-15 14:29N 35°13' E 139°43'0 0.0
2018-Jun-15 13:53N 35°13' E 139°43'0 0.0
2018-Jun-15 13:29N 35°13' E 139°43'0 0.0
2018-Jun-15 12:58N 35°13' E 139°43'0 0.0
2018-Jun-15 12:22N 35°13' E 139°43'0 0.0
2018-Jun-15 11:55N 35°13' E 139°43'0 0.0
2018-Jun-15 06:34N 35°13' E 139°43'0 0.2
2018-Jun-15 06:16N 35°13' E 139°43'3 9.9
2018-Jun-15 05:59N 35°12' E 139°46'4 8.3
2018-Jun-15 05:28N 35°16' E 139°45'5 9.7
2018-Jun-15 05:00N 35°20' E 139°42'611.7
2018-Jun-15 04:30N 35°26' E 139°43'2 3.5
2018-Jun-15 04:01N 35°27' E 139°43'0 0.5
2018-Jun-15 03:30N 35°27' E 139°43'1 1.6
2018-Jun-15 03:00N 35°27' E 139°42'0 0.0
2018-Jun-15 02:31N 35°27' E 139°42'0 0.0
2018-Jun-15 02:00N 35°27' E 139°42'0 0.0
2018-Jun-15 01:30N 35°27' E 139°42'0 0.0
2018-Jun-15 00:58N 35°27' E 139°42'2 5.1
2018-Jun-15 00:31N 35°25' E 139°42'510.8
2018-Jun-15 00:00N 35°19' E 139°42'510.2
2018-Jun-14 23:30N 35°15' E 139°45'1 1.5
2018-Jun-14 22:56N 35°16' E 139°46'612.9
2018-Jun-14 22:30N 35°20' E 139°42'2 5.0
2018-Jun-14 22:00N 35°23' E 139°43'611.5
2018-Jun-14 21:30N 35°17' E 139°44'4 0.8
2018-Jun-14 17:08N 35°13' E 139°43'0 0.0
2018-Jun-14 16:59N 35°13' E 139°43'0 0.0
2018-Jun-14 15:50N 35°13' E 139°43'0 0.0
2018-Jun-14 11:07N 35°13' E 139°43'0 0.0
2018-Jun-14 10:58N 35°13' E 139°43'0 0.0
2018-Jun-14 08:34N 35°13' E 139°43'0 0.0
2018-Jun-14 07:45N 35°13' E 139°43'3 6.6
2018-Jun-14 07:18N 35°13' E 139°46'2 6.6
2018-Jun-14 06:58N 35°15' E 139°46'511.1
2018-Jun-14 06:30N 35°19' E 139°43'612.1
2018-Jun-14 06:00N 35°25' E 139°44'713.9
2018-Jun-14 05:30N 35°29' E 139°51'  

Dump ship's entire track history